sensor_id;sensor_type;location;lat;lon;timestamp;temperature;humidity
65985;HTU21D;52748;51.112;5.880;2023-03-14T00:01:48;20.39;74.04
65985;HTU21D;52748;51.112;5.880;2023-03-14T00:04:14;20.39;73.90
65985;HTU21D;52748;51.112;5.880;2023-03-14T00:06:40;20.40;73.93
65985;HTU21D;52748;51.112;5.880;2023-03-14T00:09:06;20.42;73.70
65985;HTU21D;52748;51.112;5.880;2023-03-14T00:11:33;20.39;73.73
65985;HTU21D;52748;51.112;5.880;2023-03-14T00:13:59;20.39;73.73
65985;HTU21D;52748;51.112;5.880;2023-03-14T00:16:26;20.37;73.76
65985;HTU21D;52748;51.112;5.880;2023-03-14T00:18:52;20.39;73.73
65985;HTU21D;52748;51.112;5.880;2023-03-14T00:21:18;20.39;73.61
65985;HTU21D;52748;51.112;5.880;2023-03-14T00:23:45;20.36;73.57
65985;HTU21D;52748;51.112;5.880;2023-03-14T00:26:13;20.36;73.54
65985;HTU21D;52748;51.112;5.880;2023-03-14T00:28:40;20.37;73.48
65985;HTU21D;52748;51.112;5.880;2023-03-14T00:31:07;20.35;73.38
65985;HTU21D;52748;51.112;5.880;2023-03-14T00:33:34;20.36;73.36
65985;HTU21D;52748;51.112;5.880;2023-03-14T00:36:05;20.35;73.26
65985;HTU21D;52748;51.112;5.880;2023-03-14T00:38:32;20.34;73.20
65985;HTU21D;52748;51.112;5.880;2023-03-14T00:40:58;20.34;73.04
65985;HTU21D;52748;51.112;5.880;2023-03-14T00:43:25;20.34;73.03
65985;HTU21D;52748;51.112;5.880;2023-03-14T00:45:52;20.34;73.00
65985;HTU21D;52748;51.112;5.880;2023-03-14T00:48:19;20.33;73.03
65985;HTU21D;52748;51.112;5.880;2023-03-14T00:50:46;20.36;72.86
65985;HTU21D;52748;51.112;5.880;2023-03-14T00:53:15;20.39;72.55
65985;HTU21D;52748;51.112;5.880;2023-03-14T00:55:42;20.40;72.35
65985;HTU21D;52748;51.112;5.880;2023-03-14T00:58:10;20.40;72.16
65985;HTU21D;52748;51.112;5.880;2023-03-14T01:00:37;20.36;72.33
65985;HTU21D;52748;51.112;5.880;2023-03-14T01:03:04;20.34;72.48
65985;HTU21D;52748;51.112;5.880;2023-03-14T01:05:31;20.36;72.34
65985;HTU21D;52748;51.112;5.880;2023-03-14T01:07:57;20.33;72.34
65985;HTU21D;52748;51.112;5.880;2023-03-14T01:10:26;20.32;72.41
65985;HTU21D;52748;51.112;5.880;2023-03-14T01:12:52;20.32;72.45
65985;HTU21D;52748;51.112;5.880;2023-03-14T01:15:18;20.30;72.41
65985;HTU21D;52748;51.112;5.880;2023-03-14T01:17:44;20.29;72.36
65985;HTU21D;52748;51.112;5.880;2023-03-14T01:20:12;20.28;72.22
65985;HTU21D;52748;51.112;5.880;2023-03-14T01:22:40;20.28;72.14
65985;HTU21D;52748;51.112;5.880;2023-03-14T01:25:12;20.28;72.17
65985;HTU21D;52748;51.112;5.880;2023-03-14T01:27:38;20.27;71.99
65985;HTU21D;52748;51.112;5.880;2023-03-14T01:30:05;20.26;72.00
65985;HTU21D;52748;51.112;5.880;2023-03-14T01:32:32;20.26;71.93
65985;HTU21D;52748;51.112;5.880;2023-03-14T01:34:57;20.26;72.00
65985;HTU21D;52748;51.112;5.880;2023-03-14T01:37:23;20.30;71.57
65985;HTU21D;52748;51.112;5.880;2023-03-14T01:39:49;20.29;71.52
65985;HTU21D;52748;51.112;5.880;2023-03-14T01:42:16;20.30;71.22
65985;HTU21D;52748;51.112;5.880;2023-03-14T01:47:15;20.34;70.93
65985;HTU21D;52748;51.112;5.880;2023-03-14T01:49:45;20.29;71.23
65985;HTU21D;52748;51.112;5.880;2023-03-14T01:52:53;20.26;71.55
65985;HTU21D;52748;51.112;5.880;2023-03-14T01:55:17;20.26;71.54
65985;HTU21D;52748;51.112;5.880;2023-03-14T01:57:53;20.24;71.55
65985;HTU21D;52748;51.112;5.880;2023-03-14T02:00:22;20.22;71.58
65985;HTU21D;52748;51.112;5.880;2023-03-14T02:02:53;20.22;71.45
65985;HTU21D;52748;51.112;5.880;2023-03-14T02:05:25;20.24;71.58
65985;HTU21D;52748;51.112;5.880;2023-03-14T02:07:58;20.21;71.64
65985;HTU21D;52748;51.112;5.880;2023-03-14T02:10:39;20.21;71.58
65985;HTU21D;52748;51.112;5.880;2023-03-14T02:13:07;20.21;71.56
65985;HTU21D;52748;51.112;5.880;2023-03-14T02:15:56;20.21;71.52
65985;HTU21D;52748;51.112;5.880;2023-03-14T02:18:41;20.19;71.19
65985;HTU21D;52748;51.112;5.880;2023-03-14T02:27:39;20.19;71.06
65985;HTU21D;52748;51.112;5.880;2023-03-14T02:30:15;20.18;71.19
65985;HTU21D;52748;51.112;5.880;2023-03-14T02:32:47;20.17;71.10
65985;HTU21D;52748;51.112;5.880;2023-03-14T02:35:19;20.17;71.08
65985;HTU21D;52748;51.112;5.880;2023-03-14T02:40:50;20.17;70.87
65985;HTU21D;52748;51.112;5.880;2023-03-14T02:43:16;20.16;70.83
65985;HTU21D;52748;51.112;5.880;2023-03-14T02:45:50;20.17;70.77
65985;HTU21D;52748;51.112;5.880;2023-03-14T02:48:27;20.16;70.73
65985;HTU21D;52748;51.112;5.880;2023-03-14T02:50:56;20.15;70.54
65985;HTU21D;52748;51.112;5.880;2023-03-14T02:53:32;20.17;70.77
65985;HTU21D;52748;51.112;5.880;2023-03-14T02:56:03;20.15;70.88
65985;HTU21D;52748;51.112;5.880;2023-03-14T02:58:31;20.15;70.69
65985;HTU21D;52748;51.112;5.880;2023-03-14T03:01:06;20.15;70.73
65985;HTU21D;52748;51.112;5.880;2023-03-14T03:03:32;20.15;70.73
65985;HTU21D;52748;51.112;5.880;2023-03-14T03:05:58;20.14;70.50
65985;HTU21D;52748;51.112;5.880;2023-03-14T03:08:26;20.16;70.38
65985;HTU21D;52748;51.112;5.880;2023-03-14T03:10:53;20.19;69.61
65985;HTU21D;52748;51.112;5.880;2023-03-14T03:13:19;20.16;69.46
65985;HTU21D;52748;51.112;5.880;2023-03-14T03:15:49;20.16;69.54
65985;HTU21D;52748;51.112;5.880;2023-03-14T03:18:15;20.13;69.76
65985;HTU21D;52748;51.112;5.880;2023-03-14T03:20:42;20.13;69.95
65985;HTU21D;52748;51.112;5.880;2023-03-14T03:23:08;20.12;70.05
65985;HTU21D;52748;51.112;5.880;2023-03-14T03:25:37;20.12;69.90
65985;HTU21D;52748;51.112;5.880;2023-03-14T03:28:04;20.11;69.79
65985;HTU21D;52748;51.112;5.880;2023-03-14T03:30:38;20.11;69.62
65985;HTU21D;52748;51.112;5.880;2023-03-14T03:33:04;20.11;69.70
65985;HTU21D;52748;51.112;5.880;2023-03-14T03:35:31;20.10;69.78
65985;HTU21D;52748;51.112;5.880;2023-03-14T03:37:57;20.10;69.88
65985;HTU21D;52748;51.112;5.880;2023-03-14T03:40:23;20.10;69.70
65985;HTU21D;52748;51.112;5.880;2023-03-14T03:42:49;20.09;69.64
65985;HTU21D;52748;51.112;5.880;2023-03-14T03:45:15;20.09;69.61
65985;HTU21D;52748;51.112;5.880;2023-03-14T03:47:50;20.09;69.31
65985;HTU21D;52748;51.112;5.880;2023-03-14T03:50:16;20.09;69.22
65985;HTU21D;52748;51.112;5.880;2023-03-14T03:52:42;20.07;69.48
65985;HTU21D;52748;51.112;5.880;2023-03-14T03:55:08;20.07;69.55
65985;HTU21D;52748;51.112;5.880;2023-03-14T03:57:34;20.07;69.79
65985;HTU21D;52748;51.112;5.880;2023-03-14T04:00:00;20.07;69.72
65985;HTU21D;52748;51.112;5.880;2023-03-14T04:02:27;20.06;69.65
65985;HTU21D;52748;51.112;5.880;2023-03-14T04:04:53;20.06;69.32
65985;HTU21D;52748;51.112;5.880;2023-03-14T04:07:19;20.07;69.22
65985;HTU21D;52748;51.112;5.880;2023-03-14T04:09:45;20.07;69.14
65985;HTU21D;52748;51.112;5.880;2023-03-14T04:12:34;20.07;69.08
65985;HTU21D;52748;51.112;5.880;2023-03-14T04:15:17;20.06;69.10
65985;HTU21D;52748;51.112;5.880;2023-03-14T04:17:47;20.05;69.13
65985;HTU21D;52748;51.112;5.880;2023-03-14T04:20:14;20.03;69.18
65985;HTU21D;52748;51.112;5.880;2023-03-14T04:22:40;20.03;69.06
65985;HTU21D;52748;51.112;5.880;2023-03-14T04:25:07;20.04;69.10
65985;HTU21D;52748;51.112;5.880;2023-03-14T04:27:38;20.02;68.91
65985;HTU21D;52748;51.112;5.880;2023-03-14T04:30:10;20.03;68.94
65985;HTU21D;52748;51.112;5.880;2023-03-14T04:32:48;20.02;68.87
65985;HTU21D;52748;51.112;5.880;2023-03-14T04:35:15;20.04;68.66
65985;HTU21D;52748;51.112;5.880;2023-03-14T04:37:41;20.03;68.77
65985;HTU21D;52748;51.112;5.880;2023-03-14T04:40:10;20.04;68.68
65985;HTU21D;52748;51.112;5.880;2023-03-14T04:42:37;20.03;68.38
65985;HTU21D;52748;51.112;5.880;2023-03-14T04:45:03;20.02;68.38
65985;HTU21D;52748;51.112;5.880;2023-03-14T04:47:31;20.06;68.11
65985;HTU21D;52748;51.112;5.880;2023-03-14T04:49:58;20.04;68.13
65985;HTU21D;52748;51.112;5.880;2023-03-14T04:52:25;20.02;68.19
65985;HTU21D;52748;51.112;5.880;2023-03-14T04:54:51;20.00;68.05
65985;HTU21D;52748;51.112;5.880;2023-03-14T04:57:19;20.00;68.14
65985;HTU21D;52748;51.112;5.880;2023-03-14T04:59:46;19.99;68.09
65985;HTU21D;52748;51.112;5.880;2023-03-14T05:02:33;19.98;68.16
65985;HTU21D;52748;51.112;5.880;2023-03-14T05:05:22;19.99;68.11
65985;HTU21D;52748;51.112;5.880;2023-03-14T05:08:20;19.96;68.02
65985;HTU21D;52748;51.112;5.880;2023-03-14T05:11:12;19.97;68.16
65985;HTU21D;52748;51.112;5.880;2023-03-14T05:13:56;19.97;67.97
65985;HTU21D;52748;51.112;5.880;2023-03-14T05:16:44;19.97;68.04
65985;HTU21D;52748;51.112;5.880;2023-03-14T05:19:30;19.99;67.72
65985;HTU21D;52748;51.112;5.880;2023-03-14T05:22:02;20.01;67.38
65985;HTU21D;52748;51.112;5.880;2023-03-14T05:24:53;19.98;67.69
65985;HTU21D;52748;51.112;5.880;2023-03-14T05:27:25;19.97;67.93
65985;HTU21D;52748;51.112;5.880;2023-03-14T05:30:29;19.97;68.09
65985;HTU21D;52748;51.112;5.880;2023-03-14T05:32:59;19.97;68.07
65985;HTU21D;52748;51.112;5.880;2023-03-14T05:35:45;19.96;68.10
65985;HTU21D;52748;51.112;5.880;2023-03-14T05:38:31;19.98;68.03
65985;HTU21D;52748;51.112;5.880;2023-03-14T05:41:35;20.01;67.74
65985;HTU21D;52748;51.112;5.880;2023-03-14T05:44:30;20.00;64.98
65985;HTU21D;52748;51.112;5.880;2023-03-14T05:47:07;19.90;63.74
65985;HTU21D;52748;51.112;5.880;2023-03-14T05:50:02;19.83;63.29
65985;HTU21D;52748;51.112;5.880;2023-03-14T05:52:47;19.76;63.20
65985;HTU21D;52748;51.112;5.880;2023-03-14T05:55:29;19.71;63.34
65985;HTU21D;52748;51.112;5.880;2023-03-14T05:57:55;19.68;63.46
65985;HTU21D;52748;51.112;5.880;2023-03-14T06:00:28;19.66;63.63
65985;HTU21D;52748;51.112;5.880;2023-03-14T06:03:11;19.65;63.65
65985;HTU21D;52748;51.112;5.880;2023-03-14T06:05:41;19.63;63.80
65985;HTU21D;52748;51.112;5.880;2023-03-14T06:08:08;19.66;63.75
65985;HTU21D;52748;51.112;5.880;2023-03-14T06:10:35;19.60;64.88
65985;HTU21D;52748;51.112;5.880;2023-03-14T06:13:02;19.63;65.03
65985;HTU21D;52748;51.112;5.880;2023-03-14T06:15:28;19.66;65.23
65985;HTU21D;52748;51.112;5.880;2023-03-14T06:17:56;19.65;64.79
65985;HTU21D;52748;51.112;5.880;2023-03-14T06:20:22;19.59;64.85
65985;HTU21D;52748;51.112;5.880;2023-03-14T06:22:48;19.59;64.79
65985;HTU21D;52748;51.112;5.880;2023-03-14T06:25:14;19.59;65.04
65985;HTU21D;52748;51.112;5.880;2023-03-14T06:27:43;19.59;65.13
65985;HTU21D;52748;51.112;5.880;2023-03-14T06:30:10;19.59;64.91
65985;HTU21D;52748;51.112;5.880;2023-03-14T06:32:36;19.58;64.96
65985;HTU21D;52748;51.112;5.880;2023-03-14T06:35:06;19.58;65.12
65985;HTU21D;52748;51.112;5.880;2023-03-14T06:37:36;19.57;64.93
65985;HTU21D;52748;51.112;5.880;2023-03-14T06:40:03;19.59;66.95
65985;HTU21D;52748;51.112;5.880;2023-03-14T06:42:47;19.60;66.33
65985;HTU21D;52748;51.112;5.880;2023-03-14T06:45:15;19.57;66.91
65985;HTU21D;52748;51.112;5.880;2023-03-14T06:47:41;19.60;69.40
65985;HTU21D;52748;51.112;5.880;2023-03-14T06:50:09;19.68;70.49
65985;HTU21D;52748;51.112;5.880;2023-03-14T06:52:54;19.72;71.11
65985;HTU21D;52748;51.112;5.880;2023-03-14T06:55:24;19.77;71.34
65985;HTU21D;52748;51.112;5.880;2023-03-14T06:57:50;19.86;71.18
65985;HTU21D;52748;51.112;5.880;2023-03-14T07:00:16;19.92;70.97
65985;HTU21D;52748;51.112;5.880;2023-03-14T07:02:42;19.98;70.78
65985;HTU21D;52748;51.112;5.880;2023-03-14T07:05:17;20.00;70.69
65985;HTU21D;52748;51.112;5.880;2023-03-14T07:07:43;19.97;70.91
65985;HTU21D;52748;51.112;5.880;2023-03-14T07:10:11;19.97;71.14
65985;HTU21D;52748;51.112;5.880;2023-03-14T07:12:37;20.04;70.84
65985;HTU21D;52748;51.112;5.880;2023-03-14T07:15:04;20.04;70.63
65985;HTU21D;52748;51.112;5.880;2023-03-14T07:17:30;20.02;70.80
65985;HTU21D;52748;51.112;5.880;2023-03-14T07:19:57;20.01;70.90
65985;HTU21D;52748;51.112;5.880;2023-03-14T07:22:23;19.99;70.94
65985;HTU21D;52748;51.112;5.880;2023-03-14T07:24:49;20.00;70.95
65985;HTU21D;52748;51.112;5.880;2023-03-14T07:27:15;19.99;70.98
65985;HTU21D;52748;51.112;5.880;2023-03-14T07:29:41;19.99;70.97
65985;HTU21D;52748;51.112;5.880;2023-03-14T07:32:08;20.02;70.73
65985;HTU21D;52748;51.112;5.880;2023-03-14T07:34:43;20.01;70.77
65985;HTU21D;52748;51.112;5.880;2023-03-14T07:37:10;20.00;70.78
65985;HTU21D;52748;51.112;5.880;2023-03-14T07:39:36;20.00;70.77
65985;HTU21D;52748;51.112;5.880;2023-03-14T07:42:14;20.00;70.74
65985;HTU21D;52748;51.112;5.880;2023-03-14T07:44:43;20.04;70.49
65985;HTU21D;52748;51.112;5.880;2023-03-14T07:47:09;20.05;70.21
65985;HTU21D;52748;51.112;5.880;2023-03-14T07:49:35;20.02;70.31
65985;HTU21D;52748;51.112;5.880;2023-03-14T07:52:01;20.01;70.36
65985;HTU21D;52748;51.112;5.880;2023-03-14T07:54:26;20.00;70.40
65985;HTU21D;52748;51.112;5.880;2023-03-14T07:56:52;20.01;70.39
65985;HTU21D;52748;51.112;5.880;2023-03-14T07:59:19;19.98;70.39
65985;HTU21D;52748;51.112;5.880;2023-03-14T08:01:44;19.98;70.38
65985;HTU21D;52748;51.112;5.880;2023-03-14T08:04:10;19.98;70.34
65985;HTU21D;52748;51.112;5.880;2023-03-14T08:06:37;19.96;70.32
65985;HTU21D;52748;51.112;5.880;2023-03-14T08:09:03;20.05;69.89
65985;HTU21D;52748;51.112;5.880;2023-03-14T08:11:30;20.04;69.71
65985;HTU21D;52748;51.112;5.880;2023-03-14T08:13:56;20.06;69.56
65985;HTU21D;52748;51.112;5.880;2023-03-14T08:16:22;20.05;69.44
65985;HTU21D;52748;51.112;5.880;2023-03-14T08:18:48;20.03;69.43
65985;HTU21D;52748;51.112;5.880;2023-03-14T08:21:14;19.99;69.66
65985;HTU21D;52748;51.112;5.880;2023-03-14T08:23:40;19.98;69.81
65985;HTU21D;52748;51.112;5.880;2023-03-14T08:26:06;19.97;69.89
65985;HTU21D;52748;51.112;5.880;2023-03-14T08:28:32;19.96;69.94
65985;HTU21D;52748;51.112;5.880;2023-03-14T08:31:00;19.94;69.96
65985;HTU21D;52748;51.112;5.880;2023-03-14T08:33:27;19.94;69.96
65985;HTU21D;52748;51.112;5.880;2023-03-14T08:35:55;19.95;69.91
65985;HTU21D;52748;51.112;5.880;2023-03-14T08:38:21;19.94;69.85
65985;HTU21D;52748;51.112;5.880;2023-03-14T08:40:47;19.95;69.82
65985;HTU21D;52748;51.112;5.880;2023-03-14T08:43:13;19.95;69.77
65985;HTU21D;52748;51.112;5.880;2023-03-14T08:45:39;19.94;69.73
65985;HTU21D;52748;51.112;5.880;2023-03-14T08:48:05;19.92;69.66
65985;HTU21D;52748;51.112;5.880;2023-03-14T08:50:30;19.92;69.61
65985;HTU21D;52748;51.112;5.880;2023-03-14T08:52:56;19.95;69.43
65985;HTU21D;52748;51.112;5.880;2023-03-14T08:55:26;20.00;69.11
65985;HTU21D;52748;51.112;5.880;2023-03-14T08:57:53;19.95;69.17
65985;HTU21D;52748;51.112;5.880;2023-03-14T09:00:19;19.94;69.21
65985;HTU21D;52748;51.112;5.880;2023-03-14T09:02:45;19.92;69.23
65985;HTU21D;52748;51.112;5.880;2023-03-14T09:05:12;19.91;69.23
65985;HTU21D;52748;51.112;5.880;2023-03-14T09:07:39;19.90;69.20
65985;HTU21D;52748;51.112;5.880;2023-03-14T09:10:06;19.90;69.16
65985;HTU21D;52748;51.112;5.880;2023-03-14T09:12:32;19.89;69.13
65985;HTU21D;52748;51.112;5.880;2023-03-14T09:14:58;19.89;69.11
65985;HTU21D;52748;51.112;5.880;2023-03-14T09:17:24;19.89;69.04
65985;HTU21D;52748;51.112;5.880;2023-03-14T09:19:50;19.90;68.98
65985;HTU21D;52748;51.112;5.880;2023-03-14T09:22:15;19.89;68.91
65985;HTU21D;52748;51.112;5.880;2023-03-14T09:24:41;19.88;68.87
65985;HTU21D;52748;51.112;5.880;2023-03-14T09:27:07;19.87;68.82
65985;HTU21D;52748;51.112;5.880;2023-03-14T09:29:34;19.88;68.78
65985;HTU21D;52748;51.112;5.880;2023-03-14T09:31:59;19.87;68.75
65985;HTU21D;52748;51.112;5.880;2023-03-14T09:34:26;19.88;68.73
65985;HTU21D;52748;51.112;5.880;2023-03-14T09:36:52;19.88;68.73
65985;HTU21D;52748;51.112;5.880;2023-03-14T09:39:18;19.88;68.71
65985;HTU21D;52748;51.112;5.880;2023-03-14T09:41:47;19.88;68.70
65985;HTU21D;52748;51.112;5.880;2023-03-14T09:46:50;19.88;68.63
65985;HTU21D;52748;51.112;5.880;2023-03-14T09:49:27;19.88;68.58
65985;HTU21D;52748;51.112;5.880;2023-03-14T09:51:57;19.88;68.54
65985;HTU21D;52748;51.112;5.880;2023-03-14T09:56:55;19.92;68.25
65985;HTU21D;52748;51.112;5.880;2023-03-14T09:59:22;19.90;68.30
65985;HTU21D;52748;51.112;5.880;2023-03-14T10:01:48;19.88;68.32
65985;HTU21D;52748;51.112;5.880;2023-03-14T10:04:17;19.88;68.32
65985;HTU21D;52748;51.112;5.880;2023-03-14T10:06:44;19.88;68.30
65985;HTU21D;52748;51.112;5.880;2023-03-14T10:09:19;19.89;68.15
65985;HTU21D;52748;51.112;5.880;2023-03-14T10:11:57;19.88;68.20
65985;HTU21D;52748;51.112;5.880;2023-03-14T10:14:44;19.87;68.20
65985;HTU21D;52748;51.112;5.880;2023-03-14T10:17:13;19.87;68.20
65985;HTU21D;52748;51.112;5.880;2023-03-14T10:19:58;19.87;68.18
65985;HTU21D;52748;51.112;5.880;2023-03-14T10:22:29;19.88;68.17
65985;HTU21D;52748;51.112;5.880;2023-03-14T10:25:01;19.88;68.17
65985;HTU21D;52748;51.112;5.880;2023-03-14T10:27:31;19.87;68.16
65985;HTU21D;52748;51.112;5.880;2023-03-14T10:30:05;19.89;68.15
65985;HTU21D;52748;51.112;5.880;2023-03-14T10:32:37;19.89;68.12
65985;HTU21D;52748;51.112;5.880;2023-03-14T10:35:24;19.88;68.10
65985;HTU21D;52748;51.112;5.880;2023-03-14T10:37:53;19.88;68.08
65985;HTU21D;52748;51.112;5.880;2023-03-14T10:40:38;19.87;68.06
65985;HTU21D;52748;51.112;5.880;2023-03-14T10:43:07;19.88;68.04
65985;HTU21D;52748;51.112;5.880;2023-03-14T10:45:41;19.88;68.02
65985;HTU21D;52748;51.112;5.880;2023-03-14T10:53:19;19.88;67.92
65985;HTU21D;52748;51.112;5.880;2023-03-14T10:55:45;19.87;67.87
65985;HTU21D;52748;51.112;5.880;2023-03-14T10:58:44;19.91;67.60
65985;HTU21D;52748;51.112;5.880;2023-03-14T11:01:59;19.95;67.31
65985;HTU21D;52748;51.112;5.880;2023-03-14T11:07:32;19.90;67.29
65985;HTU21D;52748;51.112;5.880;2023-03-14T11:15:25;19.91;67.24
65985;HTU21D;52748;51.112;5.880;2023-03-14T11:21:02;19.89;67.15
65985;HTU21D;52748;51.112;5.880;2023-03-14T11:23:44;19.88;67.17
65985;HTU21D;52748;51.112;5.880;2023-03-14T11:29:02;19.87;67.17
65985;HTU21D;52748;51.112;5.880;2023-03-14T11:31:35;19.87;67.17
65985;HTU21D;52748;51.112;5.880;2023-03-14T11:37:27;19.86;67.03
65985;HTU21D;52748;51.112;5.880;2023-03-14T11:42:43;19.87;66.86
65985;HTU21D;52748;51.112;5.880;2023-03-14T11:45:34;19.87;66.84
65985;HTU21D;52748;51.112;5.880;2023-03-14T11:48:38;19.87;66.79
65985;HTU21D;52748;51.112;5.880;2023-03-14T11:51:27;19.87;66.64
65985;HTU21D;52748;51.112;5.880;2023-03-14T11:56:57;19.88;66.56
65985;HTU21D;52748;51.112;5.880;2023-03-14T11:59:33;19.87;66.54
65985;HTU21D;52748;51.112;5.880;2023-03-14T12:02:16;19.89;66.56
65985;HTU21D;52748;51.112;5.880;2023-03-14T12:04:58;19.89;66.57
65985;HTU21D;52748;51.112;5.880;2023-03-14T12:10:27;19.88;66.49
65985;HTU21D;52748;51.112;5.880;2023-03-14T12:12:53;19.88;66.49
65985;HTU21D;52748;51.112;5.880;2023-03-14T12:15:21;19.87;66.45
65985;HTU21D;52748;51.112;5.880;2023-03-14T12:17:54;19.87;66.39
65985;HTU21D;52748;51.112;5.880;2023-03-14T12:20:23;19.87;66.33
65985;HTU21D;52748;51.112;5.880;2023-03-14T12:22:50;19.86;66.28
65985;HTU21D;52748;51.112;5.880;2023-03-14T12:27:49;19.88;66.22
65985;HTU21D;52748;51.112;5.880;2023-03-14T12:41:23;19.91;65.95
65985;HTU21D;52748;51.112;5.880;2023-03-14T12:43:50;19.91;66.01
65985;HTU21D;52748;51.112;5.880;2023-03-14T12:46:26;19.95;65.85
65985;HTU21D;52748;51.112;5.880;2023-03-14T12:51:36;19.90;65.82
65985;HTU21D;52748;51.112;5.880;2023-03-14T13:04:33;19.88;65.65
65985;HTU21D;52748;51.112;5.880;2023-03-14T13:07:01;19.88;65.65
65985;HTU21D;52748;51.112;5.880;2023-03-14T13:12:13;19.88;65.64
65985;HTU21D;52748;51.112;5.880;2023-03-14T13:14:48;19.86;65.66
65985;HTU21D;52748;51.112;5.880;2023-03-14T13:17:26;19.86;65.65
65985;HTU21D;52748;51.112;5.880;2023-03-14T13:19:56;19.87;65.62
65985;HTU21D;52748;51.112;5.880;2023-03-14T13:22:33;19.85;65.62
65985;HTU21D;52748;51.112;5.880;2023-03-14T13:25:03;19.85;65.58
65985;HTU21D;52748;51.112;5.880;2023-03-14T13:27:32;19.87;65.61
65985;HTU21D;52748;51.112;5.880;2023-03-14T13:29:59;19.87;65.62
65985;HTU21D;52748;51.112;5.880;2023-03-14T13:32:30;19.86;65.62
65985;HTU21D;52748;51.112;5.880;2023-03-14T13:34:59;19.85;65.30
65985;HTU21D;52748;51.112;5.880;2023-03-14T13:37:26;19.86;65.34
65985;HTU21D;52748;51.112;5.880;2023-03-14T13:39:54;19.86;65.24
65985;HTU21D;52748;51.112;5.880;2023-03-14T13:42:25;19.85;65.01
65985;HTU21D;52748;51.112;5.880;2023-03-14T13:44:53;19.84;64.85
65985;HTU21D;52748;51.112;5.880;2023-03-14T13:47:23;19.85;64.73
65985;HTU21D;52748;51.112;5.880;2023-03-14T13:49:51;19.84;64.60
65985;HTU21D;52748;51.112;5.880;2023-03-14T13:52:44;19.85;64.56
65985;HTU21D;52748;51.112;5.880;2023-03-14T13:55:18;19.81;63.07
65985;HTU21D;52748;51.112;5.880;2023-03-14T13:57:52;19.74;62.58
65985;HTU21D;52748;51.112;5.880;2023-03-14T14:00:29;19.75;62.41
65985;HTU21D;52748;51.112;5.880;2023-03-14T14:02:57;19.70;62.60
65985;HTU21D;52748;51.112;5.880;2023-03-14T14:05:27;19.67;62.95
65985;HTU21D;52748;51.112;5.880;2023-03-14T14:07:54;19.63;62.88
65985;HTU21D;52748;51.112;5.880;2023-03-14T14:10:21;19.62;63.12
65985;HTU21D;52748;51.112;5.880;2023-03-14T14:13:14;19.58;63.33
65985;HTU21D;52748;51.112;5.880;2023-03-14T14:15:47;19.55;63.34
65985;HTU21D;52748;51.112;5.880;2023-03-14T14:18:18;19.54;63.44
65985;HTU21D;52748;51.112;5.880;2023-03-14T14:20:47;19.52;63.50
65985;HTU21D;52748;51.112;5.880;2023-03-14T14:23:26;19.50;63.64
65985;HTU21D;52748;51.112;5.880;2023-03-14T14:25:56;19.47;63.73
65985;HTU21D;52748;51.112;5.880;2023-03-14T14:31:17;19.46;63.90
65985;HTU21D;52748;51.112;5.880;2023-03-14T14:34:00;19.45;63.98
65985;HTU21D;52748;51.112;5.880;2023-03-14T14:36:41;19.43;64.07
65985;HTU21D;52748;51.112;5.880;2023-03-14T14:39:19;19.44;64.11
65985;HTU21D;52748;51.112;5.880;2023-03-14T14:41:49;19.45;64.13
65985;HTU21D;52748;51.112;5.880;2023-03-14T14:44:40;19.45;64.18
65985;HTU21D;52748;51.112;5.880;2023-03-14T14:47:06;19.43;63.97
65985;HTU21D;52748;51.112;5.880;2023-03-14T14:49:33;19.43;64.08
65985;HTU21D;52748;51.112;5.880;2023-03-14T14:52:06;19.43;64.14
65985;HTU21D;52748;51.112;5.880;2023-03-14T14:55:00;19.41;64.14
65985;HTU21D;52748;51.112;5.880;2023-03-14T14:57:27;19.42;64.14
65985;HTU21D;52748;51.112;5.880;2023-03-14T15:00:02;19.42;64.16
65985;HTU21D;52748;51.112;5.880;2023-03-14T15:02:40;19.41;64.16
65985;HTU21D;52748;51.112;5.880;2023-03-14T15:05:19;19.41;64.16
65985;HTU21D;52748;51.112;5.880;2023-03-14T15:07:45;19.40;64.14
65985;HTU21D;52748;51.112;5.880;2023-03-14T15:10:22;19.40;64.17
65985;HTU21D;52748;51.112;5.880;2023-03-14T15:12:48;19.39;64.18
65985;HTU21D;52748;51.112;5.880;2023-03-14T15:15:15;19.38;64.18
65985;HTU21D;52748;51.112;5.880;2023-03-14T15:17:42;19.37;64.14
65985;HTU21D;52748;51.112;5.880;2023-03-14T15:20:17;19.36;64.09
65985;HTU21D;52748;51.112;5.880;2023-03-14T15:22:46;19.39;63.98
65985;HTU21D;52748;51.112;5.880;2023-03-14T15:25:12;19.41;63.75
65985;HTU21D;52748;51.112;5.880;2023-03-14T15:27:38;19.41;63.58
65985;HTU21D;52748;51.112;5.880;2023-03-14T15:30:13;19.37;63.74
65985;HTU21D;52748;51.112;5.880;2023-03-14T15:32:39;19.33;63.84
65985;HTU21D;52748;51.112;5.880;2023-03-14T15:35:05;19.35;63.85
65985;HTU21D;52748;51.112;5.880;2023-03-14T15:37:31;19.32;63.90
65985;HTU21D;52748;51.112;5.880;2023-03-14T15:39:56;19.31;63.94
65985;HTU21D;52748;51.112;5.880;2023-03-14T15:42:23;19.30;63.97
65985;HTU21D;52748;51.112;5.880;2023-03-14T15:44:49;19.29;63.97
65985;HTU21D;52748;51.112;5.880;2023-03-14T15:47:15;19.27;63.92
65985;HTU21D;52748;51.112;5.880;2023-03-14T15:49:41;19.27;63.89
65985;HTU21D;52748;51.112;5.880;2023-03-14T15:52:08;19.27;63.93
65985;HTU21D;52748;51.112;5.880;2023-03-14T15:54:34;19.27;63.91
65985;HTU21D;52748;51.112;5.880;2023-03-14T15:57:00;19.27;63.89
65985;HTU21D;52748;51.112;5.880;2023-03-14T15:59:26;19.25;63.89
65985;HTU21D;52748;51.112;5.880;2023-03-14T16:01:52;19.25;63.85
65985;HTU21D;52748;51.112;5.880;2023-03-14T16:04:18;19.26;63.86
65985;HTU21D;52748;51.112;5.880;2023-03-14T16:06:44;19.28;63.74
65985;HTU21D;52748;51.112;5.880;2023-03-14T16:09:11;19.25;63.83
65985;HTU21D;52748;51.112;5.880;2023-03-14T16:11:37;19.27;63.85
65985;HTU21D;52748;51.112;5.880;2023-03-14T16:14:04;19.25;62.65
65985;HTU21D;52748;51.112;5.880;2023-03-14T16:16:31;19.25;62.60
65985;HTU21D;52748;51.112;5.880;2023-03-14T16:18:57;19.26;60.92
65985;HTU21D;52748;51.112;5.880;2023-03-14T16:21:22;19.28;59.25
65985;HTU21D;52748;51.112;5.880;2023-03-14T16:23:48;19.30;57.62
65985;HTU21D;52748;51.112;5.880;2023-03-14T16:26:17;19.28;56.28
65985;HTU21D;52748;51.112;5.880;2023-03-14T16:28:45;19.29;55.23
65985;HTU21D;52748;51.112;5.880;2023-03-14T16:31:13;19.31;54.30
65985;HTU21D;52748;51.112;5.880;2023-03-14T16:33:40;19.32;54.01
65985;HTU21D;52748;51.112;5.880;2023-03-14T16:36:10;19.31;55.84
65985;HTU21D;52748;51.112;5.880;2023-03-14T16:38:38;19.33;58.54
65985;HTU21D;52748;51.112;5.880;2023-03-14T16:41:15;19.35;60.65
65985;HTU21D;52748;51.112;5.880;2023-03-14T16:43:42;19.36;62.11
65985;HTU21D;52748;51.112;5.880;2023-03-14T16:46:13;19.39;63.33
65985;HTU21D;52748;51.112;5.880;2023-03-14T16:48:41;19.39;63.42
65985;HTU21D;52748;51.112;5.880;2023-03-14T16:51:07;19.40;64.05
65985;HTU21D;52748;51.112;5.880;2023-03-14T16:53:34;19.42;65.55
65985;HTU21D;52748;51.112;5.880;2023-03-14T16:56:00;19.44;66.56
65985;HTU21D;52748;51.112;5.880;2023-03-14T16:58:27;19.47;67.83